createdAt,value
2018-03-06T00:00:56.059Z,2.60
2018-03-06T00:03:23.664Z,2.50
2018-03-06T00:05:51.237Z,2.40
2018-03-06T00:08:18.810Z,2.30
2018-03-06T00:10:46.398Z,2.30
2018-03-06T00:13:13.965Z,2.20
2018-03-06T00:15:41.535Z,2.20
2018-03-06T00:18:09.157Z,2.10
2018-03-06T00:20:36.735Z,2.00
2018-03-06T00:23:04.303Z,1.90
2018-03-06T00:25:31.898Z,1.90
2018-03-06T00:28:00.237Z,1.70
2018-03-06T00:30:27.810Z,1.70
2018-03-06T00:32:55.415Z,1.70
2018-03-06T00:35:22.990Z,1.60
2018-03-06T00:37:50.563Z,1.60
2018-03-06T00:40:18.168Z,1.50
2018-03-06T00:42:45.738Z,1.50
2018-03-06T00:45:14.074Z,1.50
2018-03-06T00:47:41.676Z,1.50
2018-03-06T00:50:10.013Z,1.50
2018-03-06T00:52:37.584Z,1.50
2018-03-06T00:55:05.183Z,1.50
2018-03-06T00:57:33.524Z,1.40
2018-03-06T01:00:01.088Z,1.30
2018-03-06T01:02:28.694Z,1.30
2018-03-06T01:04:56.286Z,1.30
2018-03-06T01:07:23.863Z,1.20
2018-03-06T01:09:51.454Z,1.20
2018-03-06T01:12:19.795Z,1.20
2018-03-06T01:14:47.362Z,1.10
2018-03-06T01:17:14.962Z,1.10
2018-03-06T01:19:43.297Z,1.00
2018-03-06T01:22:11.633Z,0.90
2018-03-06T01:24:40.014Z,0.90
2018-03-06T01:27:07.607Z,0.90
2018-03-06T01:29:35.166Z,0.80
2018-03-06T01:32:02.778Z,0.80
2018-03-06T01:34:31.107Z,0.70
2018-03-06T01:36:58.674Z,0.60
2018-03-06T01:39:26.270Z,0.60
2018-03-06T01:41:54.622Z,0.70
2018-03-06T01:44:22.199Z,0.70
2018-03-06T01:46:49.796Z,0.70
2018-03-06T01:49:17.374Z,0.60
2018-03-06T01:51:57.814Z,0.60
2018-03-06T01:54:25.383Z,0.50
2018-03-06T01:56:52.943Z,0.50
2018-03-06T01:59:20.544Z,0.40
2018-03-06T02:01:48.111Z,0.40
2018-03-06T02:04:15.672Z,0.40
2018-03-06T02:06:43.259Z,0.40
2018-03-06T02:09:10.826Z,0.40
2018-03-06T02:11:39.163Z,0.30
2018-03-06T02:14:06.760Z,0.30
2018-03-06T02:16:35.105Z,0.30
2018-03-06T02:19:02.669Z,0.30
2018-03-06T02:21:30.309Z,0.30
2018-03-06T02:23:58.614Z,0.30
2018-03-06T02:26:26.182Z,0.30
2018-03-06T02:28:56.247Z,0.30
2018-03-06T02:31:23.813Z,0.20
2018-03-06T02:33:51.407Z,0.10
2018-03-06T02:36:18.977Z,0.10
2018-03-06T02:38:46.552Z,0.00
2018-03-06T02:41:14.906Z,0.00
2018-03-06T02:43:42.459Z,0.00
2018-03-06T02:46:10.049Z,-0.10
2018-03-06T02:48:37.614Z,-0.10
2018-03-06T02:51:05.214Z,-0.10
2018-03-06T02:53:32.774Z,-0.20
2018-03-06T02:56:00.355Z,-0.20
2018-03-06T02:58:27.961Z,-0.20
2018-03-06T03:00:56.298Z,-0.20
2018-03-06T03:03:23.872Z,-0.20
2018-03-06T03:05:51.487Z,-0.20
2018-03-06T03:08:19.046Z,-0.10
2018-03-06T03:10:46.628Z,-0.10
2018-03-06T03:13:14.226Z,-0.20
2018-03-06T03:15:41.799Z,-0.20
2018-03-06T03:18:09.376Z,-0.20
2018-03-06T03:20:36.963Z,-0.20
2018-03-06T03:23:04.549Z,-0.20
2018-03-06T03:25:32.119Z,-0.20
2018-03-06T03:27:59.726Z,-0.30
2018-03-06T03:30:28.270Z,-0.30
2018-03-06T03:32:55.846Z,-0.40
2018-03-06T03:35:23.446Z,-0.40
2018-03-06T03:37:51.029Z,-0.40
2018-03-06T03:40:18.609Z,-0.50
2018-03-06T03:42:46.207Z,-0.50
2018-03-06T03:45:14.563Z,-0.60
2018-03-06T03:47:42.143Z,-0.60
2018-03-06T03:50:10.504Z,-0.60
2018-03-06T03:52:38.083Z,-0.60
2018-03-06T03:55:06.431Z,-0.60
2018-03-06T03:57:34.045Z,-0.70
2018-03-06T04:00:01.612Z,-0.70
2018-03-06T04:02:29.187Z,-0.70
2018-03-06T04:04:56.786Z,-0.70
2018-03-06T04:07:24.370Z,-0.70
2018-03-06T04:09:52.705Z,-0.80
2018-03-06T04:12:20.318Z,-0.80
2018-03-06T04:14:48.644Z,-0.80
2018-03-06T04:17:16.245Z,-0.80
2018-03-06T04:19:44.590Z,-0.80
2018-03-06T04:22:12.162Z,-0.80
2018-03-06T04:24:39.754Z,-0.80
2018-03-06T04:27:07.329Z,-0.80
2018-03-06T04:29:34.914Z,-0.80
2018-03-06T04:32:02.508Z,-0.80
2018-03-06T04:34:30.088Z,-0.80
2018-03-06T04:36:58.448Z,-0.80
2018-03-06T04:39:26.021Z,-0.80
2018-03-06T04:41:53.585Z,-0.80
2018-03-06T04:44:21.180Z,-0.90
2018-03-06T04:46:48.760Z,-0.90
2018-03-06T04:49:16.363Z,-0.90
2018-03-06T04:51:44.736Z,-0.90
2018-03-06T04:54:12.302Z,-0.90
2018-03-06T04:56:39.890Z,-0.90
2018-03-06T04:59:07.471Z,-0.90
2018-03-06T05:01:35.078Z,-1.00
2018-03-06T05:04:02.687Z,-1.00
2018-03-06T05:06:30.258Z,-1.00
2018-03-06T05:08:57.869Z,-1.00
2018-03-06T05:11:26.212Z,-0.90
2018-03-06T05:13:53.814Z,-0.90
2018-03-06T05:16:22.164Z,-0.90
2018-03-06T05:18:49.952Z,-0.90
2018-03-06T05:21:18.266Z,-0.80
2018-03-06T05:23:45.844Z,-0.80
2018-03-06T05:26:13.459Z,-0.90
2018-03-06T05:28:41.804Z,-0.90
2018-03-06T05:31:09.369Z,-0.90
2018-03-06T05:33:36.984Z,-0.90
2018-03-06T05:36:04.577Z,-0.90
2018-03-06T05:38:32.165Z,-0.90
2018-03-06T05:40:59.791Z,-0.90
2018-03-06T05:43:27.361Z,-0.80
2018-03-06T05:45:54.947Z,-0.90
2018-03-06T05:48:22.590Z,-0.80
2018-03-06T05:50:50.188Z,-0.90
2018-03-06T05:53:18.573Z,-0.90
2018-03-06T05:55:46.922Z,-0.90
2018-03-06T05:58:14.526Z,-0.80
2018-03-06T06:00:42.147Z,-0.90
2018-03-06T06:03:09.739Z,-0.90
2018-03-06T06:05:38.107Z,-0.80
2018-03-06T06:08:06.447Z,-0.70
2018-03-06T06:10:34.010Z,-0.80
2018-03-06T06:13:01.618Z,-0.70
2018-03-06T06:15:29.201Z,-0.60
2018-03-06T06:17:56.796Z,-0.60
2018-03-06T06:20:24.474Z,-0.60
2018-03-06T06:22:52.962Z,-0.50
2018-03-06T06:25:20.520Z,-0.50
2018-03-06T06:27:48.095Z,-0.50
2018-03-06T06:30:15.714Z,-0.50
2018-03-06T06:32:43.279Z,-0.40
2018-03-06T06:35:10.864Z,-0.40
2018-03-06T06:37:38.419Z,-0.30
2018-03-06T06:40:06.009Z,-0.30
2018-03-06T06:42:33.632Z,-0.20
2018-03-06T06:45:01.197Z,-0.20
2018-03-06T06:47:28.779Z,-0.10
2018-03-06T06:49:56.354Z,-0.10
2018-03-06T06:52:23.959Z,0.00
2018-03-06T06:54:51.535Z,0.00
2018-03-06T06:57:19.887Z,0.10
2018-03-06T06:59:47.524Z,0.20
2018-03-06T07:02:15.852Z,0.30
2018-03-06T07:04:43.411Z,0.30
2018-03-06T07:07:10.982Z,0.40
2018-03-06T07:09:38.547Z,0.50
2018-03-06T07:12:06.545Z,0.60
2018-03-06T07:14:34.875Z,0.80
2018-03-06T07:17:02.513Z,0.80
2018-03-06T07:19:30.084Z,1.00
2018-03-06T07:21:58.743Z,1.00
2018-03-06T07:24:27.085Z,1.30
2018-03-06T07:26:54.637Z,1.30
2018-03-06T07:29:22.190Z,1.40
2018-03-06T07:31:49.769Z,1.40
2018-03-06T07:34:17.332Z,1.50
2018-03-06T07:36:44.928Z,1.50
2018-03-06T07:39:12.498Z,1.60
2018-03-06T07:41:40.043Z,1.70
2018-03-06T07:44:07.621Z,1.70
2018-03-06T07:46:35.169Z,1.80
2018-03-06T07:49:03.510Z,1.90
2018-03-06T07:51:31.062Z,1.90
2018-03-06T07:53:58.626Z,2.00
2018-03-06T07:56:26.198Z,2.10
2018-03-06T07:58:53.754Z,2.10
2018-03-06T08:01:21.324Z,2.10
2018-03-06T08:03:48.903Z,2.20
2018-03-06T08:06:17.288Z,2.30
2018-03-06T08:08:45.627Z,2.40
2018-03-06T08:11:13.175Z,2.40
2018-03-06T08:13:40.743Z,2.50
2018-03-06T08:16:08.298Z,2.60
2018-03-06T08:18:35.856Z,2.60
2018-03-06T08:21:03.432Z,2.70
2018-03-06T08:23:30.990Z,2.80
2018-03-06T08:25:58.554Z,3.00
2018-03-06T08:28:26.107Z,3.20
2018-03-06T08:30:53.663Z,3.20
2018-03-06T08:33:21.230Z,3.20
2018-03-06T08:35:48.831Z,3.30
2018-03-06T08:38:17.188Z,3.40
2018-03-06T08:40:44.740Z,3.40
2018-03-06T08:43:12.296Z,3.50
2018-03-06T08:45:39.890Z,3.60
2018-03-06T08:48:08.248Z,3.60
2018-03-06T08:50:35.818Z,3.60
2018-03-06T08:53:04.131Z,3.80
2018-03-06T08:55:31.686Z,3.80
2018-03-06T08:57:59.259Z,3.90
2018-03-06T09:00:26.828Z,4.00
2018-03-06T09:02:54.402Z,4.10
2018-03-06T09:05:21.953Z,4.20
2018-03-06T09:07:49.511Z,4.30
2018-03-06T09:10:17.083Z,4.40
2018-03-06T09:12:44.638Z,4.40
2018-03-06T09:15:12.238Z,4.50
2018-03-06T09:17:39.800Z,4.30
2018-03-06T09:20:08.126Z,4.30
2018-03-06T09:22:35.694Z,4.30
2018-03-06T09:25:04.169Z,4.40
2018-03-06T09:27:31.751Z,4.60
2018-03-06T09:29:59.311Z,4.70
2018-03-06T09:32:27.647Z,5.10
2018-03-06T09:34:55.236Z,5.10
2018-03-06T09:37:22.789Z,5.10
2018-03-06T09:39:50.389Z,4.90
2018-03-06T09:42:17.965Z,5.00
2018-03-06T09:44:45.542Z,5.10
2018-03-06T09:47:13.876Z,5.20
2018-03-06T09:49:41.432Z,5.20
2018-03-06T09:52:08.998Z,5.10
2018-03-06T09:54:36.563Z,5.10
2018-03-06T09:57:04.117Z,5.00
2018-03-06T09:59:32.445Z,5.40
2018-03-06T10:01:59.994Z,5.40
2018-03-06T10:04:28.330Z,5.70
2018-03-06T10:06:55.882Z,5.70
2018-03-06T10:09:23.440Z,5.90
2018-03-06T10:11:51.003Z,5.70
2018-03-06T10:14:18.552Z,5.70
2018-03-06T10:16:46.125Z,5.70
2018-03-06T10:19:13.683Z,5.80
2018-03-06T10:21:41.223Z,5.80
2018-03-06T10:24:08.790Z,5.70
2018-03-06T10:26:36.335Z,6.00
2018-03-06T10:29:03.908Z,6.00
2018-03-06T10:31:31.458Z,6.00
2018-03-06T10:33:59.055Z,6.10
2018-03-06T10:36:26.639Z,6.10
2018-03-06T10:38:54.965Z,6.30
2018-03-06T10:41:22.530Z,6.30
2018-03-06T10:43:50.077Z,6.30
2018-03-06T10:46:17.636Z,6.40
2018-03-06T10:48:45.199Z,6.40
2018-03-06T10:51:12.743Z,6.40
2018-03-06T10:53:40.318Z,6.70
2018-03-06T10:56:07.885Z,6.60
2018-03-06T10:58:35.431Z,6.50
2018-03-06T11:01:02.992Z,6.40
2018-03-06T11:03:30.549Z,6.40
2018-03-06T11:05:58.134Z,6.60
2018-03-06T11:08:25.694Z,6.70
2018-03-06T11:10:53.232Z,6.60
2018-03-06T11:13:21.975Z,6.50
2018-03-06T11:15:49.519Z,6.50
2018-03-06T11:18:17.091Z,6.60
2018-03-06T11:20:44.636Z,6.80
2018-03-06T11:23:17.982Z,7.00
2018-03-06T11:25:46.292Z,7.40
2018-03-06T11:28:13.840Z,7.40
2018-03-06T11:30:41.402Z,7.50
2018-03-06T11:33:08.944Z,7.60
2018-03-06T11:35:36.519Z,7.40
2018-03-06T11:38:04.066Z,7.10
2018-03-06T11:40:31.610Z,7.30
2018-03-06T11:42:59.947Z,7.70
2018-03-06T11:45:27.498Z,7.70
2018-03-06T11:47:55.070Z,7.90
2018-03-06T11:50:22.623Z,7.60
2018-03-06T11:52:50.180Z,7.70
2018-03-06T11:55:17.735Z,7.70
2018-03-06T11:57:45.274Z,7.80
2018-03-06T12:00:12.855Z,7.90
2018-03-06T12:02:40.419Z,7.80
2018-03-06T12:05:07.986Z,7.70
2018-03-06T12:07:36.353Z,7.70
2018-03-06T12:10:07.343Z,7.70
2018-03-06T12:12:34.903Z,7.90
2018-03-06T12:15:05.397Z,7.90
2018-03-06T12:17:32.939Z,8.10
2018-03-06T12:20:00.612Z,8.10
2018-03-06T12:22:28.210Z,8.20
2018-03-06T12:24:56.566Z,8.30
2018-03-06T12:27:24.212Z,8.30
2018-03-06T12:29:51.758Z,8.40
2018-03-06T12:32:19.316Z,8.50
2018-03-06T12:34:46.866Z,8.60
2018-03-06T12:37:14.436Z,8.60
2018-03-06T12:39:41.974Z,8.70
2018-03-06T12:42:09.523Z,8.80
2018-03-06T12:44:37.952Z,8.80
2018-03-06T12:47:05.498Z,8.80
2018-03-06T12:49:41.398Z,8.80
2018-03-06T12:52:08.942Z,8.70
2018-03-06T12:54:36.498Z,8.70
2018-03-06T12:57:04.073Z,8.80
2018-03-06T12:59:31.612Z,8.80
2018-03-06T13:01:59.187Z,9.00
2018-03-06T13:04:26.739Z,9.00
2018-03-06T13:06:54.289Z,8.90
2018-03-06T13:09:21.852Z,9.00
2018-03-06T13:11:49.389Z,9.00
2018-03-06T13:14:16.956Z,8.80
2018-03-06T13:16:44.490Z,8.80
2018-03-06T13:19:12.793Z,8.80
2018-03-06T13:21:40.357Z,8.80
2018-03-06T13:24:07.906Z,8.70
2018-03-06T13:26:35.490Z,8.60
2018-03-06T13:29:03.037Z,8.70
2018-03-06T13:31:30.575Z,8.70
2018-03-06T13:33:58.936Z,8.90
2018-03-06T13:36:26.467Z,8.90
2018-03-06T13:38:54.048Z,8.90
2018-03-06T13:41:22.661Z,8.80
2018-03-06T13:43:50.452Z,8.80
2018-03-06T13:46:18.015Z,8.90
2018-03-06T13:48:45.572Z,8.90
2018-03-06T13:51:13.151Z,8.90
2018-03-06T13:53:40.706Z,8.80
2018-03-06T13:56:14.879Z,8.70
2018-03-06T13:58:50.372Z,8.60
2018-03-06T14:01:17.967Z,8.60
2018-03-06T14:03:45.508Z,8.80
2018-03-06T14:06:13.043Z,8.70
2018-03-06T14:08:40.620Z,8.80
2018-03-06T14:11:08.161Z,8.80
2018-03-06T14:13:35.708Z,8.80
2018-03-06T14:16:04.231Z,8.80
2018-03-06T14:18:31.780Z,8.90
2018-03-06T14:20:59.327Z,8.90
2018-03-06T14:23:26.928Z,8.90
2018-03-06T14:25:55.260Z,9.00
2018-03-06T14:28:22.823Z,9.00
2018-03-06T14:30:50.470Z,9.00
2018-03-06T14:33:18.011Z,9.00
2018-03-06T14:35:46.339Z,8.90
2018-03-06T14:38:13.904Z,8.90
2018-03-06T14:40:41.463Z,8.90
2018-03-06T14:43:09.047Z,8.90
2018-03-06T14:45:36.624Z,8.80
2018-03-06T14:48:04.930Z,8.90
2018-03-06T14:50:32.471Z,8.90
2018-03-06T14:53:00.795Z,8.90
2018-03-06T14:55:28.340Z,8.80
2018-03-06T14:57:55.920Z,8.90
2018-03-06T15:00:23.469Z,8.90
2018-03-06T15:02:51.015Z,8.90
2018-03-06T15:05:18.588Z,8.90
2018-03-06T15:07:46.470Z,8.90
2018-03-06T15:10:14.046Z,8.80
2018-03-06T15:12:41.588Z,8.90
2018-03-06T15:15:09.134Z,8.90
2018-03-06T15:17:36.694Z,8.90
2018-03-06T15:20:04.242Z,9.00
2018-03-06T15:22:31.814Z,9.00
2018-03-06T15:24:59.359Z,8.90
2018-03-06T15:27:26.903Z,8.90
2018-03-06T15:29:54.474Z,8.80
2018-03-06T15:32:22.053Z,8.80
2018-03-06T15:34:49.634Z,8.80
2018-03-06T15:37:17.178Z,8.80
2018-03-06T15:39:44.750Z,8.70
2018-03-06T15:42:12.340Z,8.70
2018-03-06T15:44:39.886Z,8.70
2018-03-06T15:47:07.457Z,8.70
2018-03-06T15:49:35.036Z,8.70
2018-03-06T15:52:03.350Z,8.70
2018-03-06T15:54:30.919Z,8.70
2018-03-06T15:56:58.477Z,8.60
2018-03-06T15:59:26.043Z,8.50
2018-03-06T16:01:53.583Z,8.50
2018-03-06T16:04:21.127Z,8.50
2018-03-06T16:06:49.463Z,8.40
2018-03-06T16:09:17.034Z,8.40
2018-03-06T16:11:44.594Z,8.40
2018-03-06T16:14:12.134Z,8.30
2018-03-06T16:16:43.431Z,8.20
2018-03-06T16:19:11.769Z,8.10
2018-03-06T16:21:39.321Z,8.20
2018-03-06T16:24:06.917Z,8.10
2018-03-06T16:26:35.260Z,8.00
2018-03-06T16:29:02.819Z,8.00
2018-03-06T16:31:30.408Z,7.90
2018-03-06T16:33:57.966Z,7.80
2018-03-06T16:36:25.534Z,7.70
2018-03-06T16:38:53.108Z,7.70
2018-03-06T16:41:20.683Z,7.60
2018-03-06T16:43:48.264Z,7.50
2018-03-06T16:46:17.760Z,7.40
2018-03-06T16:48:45.382Z,7.20
2018-03-06T16:51:12.923Z,7.10
2018-03-06T16:53:40.486Z,7.10
2018-03-06T16:56:08.055Z,7.00
2018-03-06T16:58:35.602Z,6.90
2018-03-06T17:01:06.205Z,6.70
2018-03-06T17:03:33.749Z,6.60
2018-03-06T17:06:01.293Z,6.50
2018-03-06T17:08:29.627Z,6.30
2018-03-06T17:10:58.014Z,6.30
2018-03-06T17:16:21.372Z,6.10
2018-03-06T17:18:48.959Z,6.00
2018-03-06T17:21:21.945Z,5.90
2018-03-06T17:23:50.324Z,5.80
2018-03-06T17:26:18.786Z,5.80
2018-03-06T17:28:46.350Z,5.70
2018-03-06T17:31:13.942Z,5.60
2018-03-06T17:33:41.484Z,5.60
2018-03-06T17:36:09.066Z,5.60
2018-03-06T17:38:36.641Z,5.50
2018-03-06T17:41:13.035Z,5.40
2018-03-06T17:43:40.611Z,5.30
2018-03-06T17:46:08.156Z,5.30
2018-03-06T17:48:35.727Z,5.30
2018-03-06T17:51:03.275Z,5.20
2018-03-06T17:53:30.846Z,5.20
2018-03-06T17:55:58.403Z,5.20
2018-03-06T17:58:25.946Z,5.10
2018-03-06T18:01:01.313Z,5.10
2018-03-06T18:03:28.869Z,5.00
2018-03-06T18:05:56.459Z,5.00
2018-03-06T18:08:24.020Z,5.00
2018-03-06T18:10:51.592Z,5.00
2018-03-06T18:13:19.196Z,5.00
2018-03-06T18:15:46.762Z,4.90
2018-03-06T18:18:15.277Z,4.90
2018-03-06T18:20:42.833Z,4.80
2018-03-06T18:23:10.445Z,4.80
2018-03-06T18:25:38.783Z,4.60
2018-03-06T18:28:06.398Z,4.60
2018-03-06T18:30:33.978Z,4.60
2018-03-06T18:33:03.508Z,4.50
2018-03-06T18:35:31.095Z,4.50
2018-03-06T18:37:58.674Z,4.40
2018-03-06T18:40:26.248Z,4.30
2018-03-06T18:42:54.777Z,4.20
2018-03-06T18:45:22.352Z,4.20
2018-03-06T18:47:49.951Z,4.10
2018-03-06T18:53:17.078Z,4.10
2018-03-06T18:55:44.654Z,4.10
2018-03-06T18:58:12.202Z,4.10
2018-03-06T19:01:02.445Z,4.10
2018-03-06T19:03:41.832Z,4.00
2018-03-06T19:06:21.395Z,4.00
2018-03-06T19:08:49.730Z,4.00
2018-03-06T19:11:17.324Z,3.90
2018-03-06T19:13:44.901Z,3.90
2018-03-06T19:16:13.253Z,3.90
2018-03-06T19:18:40.914Z,3.90
2018-03-06T19:21:08.475Z,4.00
2018-03-06T19:23:36.017Z,3.90
2018-03-06T19:26:05.737Z,3.90
2018-03-06T19:28:33.676Z,3.90
2018-03-06T19:31:01.332Z,3.80
2018-03-06T19:33:28.929Z,3.80
2018-03-06T19:35:57.193Z,3.80
2018-03-06T19:38:24.763Z,3.80
2018-03-06T19:40:52.343Z,3.70
2018-03-06T19:43:20.711Z,3.80
2018-03-06T19:45:48.267Z,3.80
2018-03-06T19:48:15.859Z,3.80
2018-03-06T19:50:43.435Z,3.80
2018-03-06T19:53:11.043Z,3.90
2018-03-06T19:55:56.367Z,4.00
2018-03-06T19:58:27.281Z,4.10
2018-03-06T20:00:54.851Z,4.10
2018-03-06T20:03:24.223Z,4.30
2018-03-06T20:05:51.782Z,4.30
2018-03-06T20:08:19.407Z,4.50
2018-03-06T20:10:47.008Z,4.50
2018-03-06T20:13:14.563Z,4.60
2018-03-06T20:15:42.161Z,4.60
2018-03-06T20:18:11.500Z,4.60
2018-03-06T20:20:39.086Z,4.60
2018-03-06T20:23:07.410Z,4.60
2018-03-06T20:25:41.471Z,4.60
2018-03-06T20:28:09.012Z,4.60
2018-03-06T20:30:57.406Z,4.60
2018-03-06T20:33:24.958Z,4.60
2018-03-06T20:35:52.527Z,4.70
2018-03-06T20:38:25.759Z,4.70
2018-03-06T20:40:53.390Z,4.80
2018-03-06T20:43:20.979Z,4.80
2018-03-06T20:45:54.223Z,4.90
2018-03-06T20:48:29.730Z,5.00
2018-03-06T20:50:57.275Z,5.00
2018-03-06T20:53:31.333Z,5.20
2018-03-06T20:55:58.876Z,5.20
2018-03-06T20:58:26.448Z,5.20
2018-03-06T21:00:54.048Z,5.30
2018-03-06T21:03:21.582Z,5.30
2018-03-06T21:05:49.173Z,5.30
2018-03-06T21:08:16.706Z,5.40
2018-03-06T21:10:44.250Z,5.50
2018-03-06T21:13:11.858Z,5.50
2018-03-06T21:15:39.414Z,5.60
2018-03-06T21:18:07.011Z,5.60
2018-03-06T21:20:34.564Z,5.60
2018-03-06T21:23:02.106Z,5.70
2018-03-06T21:25:30.836Z,5.70
2018-03-06T21:27:58.382Z,5.70
2018-03-06T21:30:26.899Z,5.70
2018-03-06T21:32:54.459Z,5.70
2018-03-06T21:35:21.998Z,5.70
2018-03-06T21:37:49.578Z,5.70
2018-03-06T21:40:17.173Z,5.70
2018-03-06T21:42:45.528Z,5.60
2018-03-06T21:45:13.536Z,5.60
2018-03-06T21:47:41.251Z,5.60
2018-03-06T21:50:12.405Z,5.60
2018-03-06T21:52:39.962Z,5.60
2018-03-06T21:55:07.532Z,5.60
2018-03-06T21:57:35.065Z,5.60
2018-03-06T22:00:03.651Z,5.60
2018-03-06T22:02:31.207Z,5.60
2018-03-06T22:04:58.765Z,5.60
2018-03-06T22:07:27.058Z,5.60
2018-03-06T22:09:54.587Z,5.60
2018-03-06T22:12:22.135Z,5.50
2018-03-06T22:14:49.707Z,5.50
2018-03-06T22:17:17.246Z,5.50
2018-03-06T22:19:45.588Z,5.50
2018-03-06T22:22:13.151Z,5.50
2018-03-06T22:24:40.703Z,5.50
2018-03-06T22:27:08.271Z,5.50
2018-03-06T22:29:43.649Z,5.50
2018-03-06T22:32:11.991Z,5.50
2018-03-06T22:34:39.562Z,5.50
2018-03-06T22:37:07.126Z,5.50
2018-03-06T22:39:34.708Z,5.50
2018-03-06T22:42:02.268Z,5.50
2018-03-06T22:44:30.615Z,5.40
2018-03-06T22:46:58.170Z,5.40
2018-03-06T22:49:25.722Z,5.50
2018-03-06T22:51:53.292Z,5.40
2018-03-06T22:54:20.866Z,5.40
2018-03-06T22:56:48.442Z,5.40
2018-03-06T22:59:16.018Z,5.40
2018-03-06T23:01:44.355Z,5.30
2018-03-06T23:04:11.924Z,5.30
2018-03-06T23:06:39.464Z,5.30
2018-03-06T23:09:07.050Z,5.30
2018-03-06T23:11:34.604Z,5.30
2018-03-06T23:14:02.143Z,5.30
2018-03-06T23:16:29.732Z,5.30
2018-03-06T23:18:57.271Z,5.30
2018-03-06T23:21:24.842Z,5.30
2018-03-06T23:23:52.401Z,5.30
2018-03-06T23:26:19.950Z,5.30
2018-03-06T23:28:47.523Z,5.30
2018-03-06T23:31:15.076Z,5.20
2018-03-06T23:33:51.111Z,5.20
2018-03-06T23:36:18.668Z,5.20
2018-03-06T23:38:46.228Z,5.20
2018-03-06T23:41:13.851Z,5.20
2018-03-06T23:43:41.424Z,5.20
2018-03-06T23:46:09.037Z,5.20
2018-03-06T23:48:36.654Z,5.20
2018-03-06T23:51:04.239Z,5.20
2018-03-06T23:53:31.822Z,5.20
2018-03-06T23:55:59.375Z,5.20
2018-03-06T23:58:26.953Z,5.10
